Time;durP1;ratioP1;P1;durP2;ratioP2;P2;SDS_P1;SDS_P2;PMS_P1;PMS_P2;Temp;Humidity;BMP_temperature;BMP_pressure;BME280_temperature;BME280_humidity;BME280_pressure;Samples;Min_cycle;Max_cycle;Signal;HPM_P1;HPM_P2
2022/06/12 00:01:25;;;;;;;7.40;3.28;;;;;;;18.33;49.66;102218.34;4895923;28;124244;-66
2022/06/12 00:03:53;;;;;;;6.53;2.97;;;;;;;18.29;49.89;102222.16;4895158;28;124446;-66
2022/06/12 00:06:22;;;;;;;4.60;2.67;;;;;;;18.23;50.27;102212.63;4890421;28;114166;-66
2022/06/12 00:08:49;;;;;;;6.40;2.67;;;;;;;18.21;50.22;102216.34;4898190;28;113977;-66
2022/06/12 00:11:24;;;;;;;5.22;2.67;;;;;;;18.16;50.52;102221.06;4894478;28;124609;-66
2022/06/12 00:13:56;;;;;;;9.68;2.78;;;;;;;18.11;50.54;102217.81;4899495;28;126237;-66
2022/06/12 00:16:24;;;;;;;9.82;2.90;;;;;;;18.06;50.44;102205.53;4899537;28;114881;-65
2022/06/12 00:18:52;;;;;;;6.15;2.65;;;;;;;18.02;50.37;102214.66;4903936;28;113824;-65
2022/06/12 00:21:19;;;;;;;5.15;2.50;;;;;;;17.98;50.58;102215.78;4906496;28;124171;-65
2022/06/12 00:23:55;;;;;;;7.47;2.70;;;;;;;17.92;50.64;102213.44;4903313;28;124627;-64
2022/06/12 00:26:29;;;;;;;5.90;2.97;;;;;;;17.87;50.64;102210.13;4902931;28;114553;-65
2022/06/12 00:29:06;;;;;;;6.38;2.72;;;;;;;17.83;51.00;102216.59;4904188;28;114376;-64
2022/06/12 00:31:38;;;;;;;6.32;3.00;;;;;;;17.78;51.09;102210.59;4911313;28;124322;-64
2022/06/12 00:34:05;;;;;;;7.38;3.33;;;;;;;17.74;51.15;102209.88;4902761;28;123914;-64
2022/06/12 00:36:33;;;;;;;6.57;3.50;;;;;;;17.70;51.42;102202.97;4907258;28;114779;-65
2022/06/12 00:39:02;;;;;;;6.63;3.08;;;;;;;17.66;51.59;102201.41;4899237;28;114240;-65
2022/06/12 00:41:29;;;;;;;9.90;3.67;;;;;;;17.63;51.68;102197.09;4903117;28;123924;-64
2022/06/12 00:43:56;;;;;;;6.97;3.53;;;;;;;17.58;51.66;102204.50;4901690;28;124160;-65
2022/06/12 00:46:35;;;;;;;10.27;3.22;;;;;;;17.54;51.70;102202.94;4902157;28;115940;-65
2022/06/12 00:49:25;;;;;;;7.53;2.95;;;;;;;17.51;51.65;102203.06;4902696;28;115125;-64
2022/06/12 00:52:02;;;;;;;8.25;3.50;;;;;;;17.49;51.73;102199.63;4900906;28;124006;-64
2022/06/12 00:54:30;;;;;;;7.30;2.75;;;;;;;17.47;51.64;102206.88;4901494;28;123711;-64
2022/06/12 00:57:00;;;;;;;5.80;3.38;;;;;;;17.45;51.68;102208.75;4905252;28;113284;-66
2022/06/12 00:59:35;;;;;;;8.38;3.95;;;;;;;17.42;51.64;102204.44;4882838;28;112987;-65
2022/06/12 01:02:05;;;;;;;7.38;3.22;;;;;;;17.39;51.56;102209.09;4906289;28;123930;-65
2022/06/12 01:07:24;;;;;;;7.03;3.38;;;;;;;17.24;51.87;102211.59;4904670;28;114302;-68
2022/06/12 01:09:54;;;;;;;8.45;3.58;;;;;;;17.19;52.08;102212.78;4902788;28;113726;-69
2022/06/12 01:12:26;;;;;;;8.52;3.97;;;;;;;17.13;52.41;102211.28;4906934;28;124048;-68
2022/06/12 01:15:01;;;;;;;9.25;4.00;;;;;;;17.12;52.36;102212.22;4895242;28;124045;-69
2022/06/12 01:17:29;;;;;;;7.50;3.42;;;;;;;17.10;52.33;102208.75;4899421;28;115505;-69
2022/06/12 01:20:03;;;;;;;8.25;3.45;;;;;;;17.08;52.47;102207.97;4897780;28;114750;-69
2022/06/12 01:22:55;;;;;;;7.47;3.58;;;;;;;17.06;52.40;102207.19;4895193;28;124114;-69
2022/06/12 01:25:45;;;;;;;7.05;3.22;;;;;;;17.04;52.48;102209.06;4906628;28;123565;-68
2022/06/12 01:28:33;;;;;;;6.70;3.20;;;;;;;17.04;52.64;102211.75;4902412;28;114553;-68
2022/06/12 01:31:18;;;;;;;9.07;3.75;;;;;;;17.02;52.46;102205.59;4897613;28;114203;-68
2022/06/12 01:33:57;;;;;;;9.10;3.55;;;;;;;17.01;52.70;102225.28;4902267;28;124646;-68
2022/06/12 01:36:38;;;;;;;9.52;3.47;;;;;;;16.99;52.61;102221.81;4904282;28;123959;-68
2022/06/12 01:39:15;;;;;;;6.22;3.42;;;;;;;16.98;52.63;102214.75;4900791;28;115639;-68
2022/06/12 01:41:51;;;;;;;8.52;3.55;;;;;;;16.97;52.60;102213.00;4899904;28;115796;-68
2022/06/12 01:44:45;;;;;;;9.30;3.28;;;;;;;16.92;52.50;102216.78;4897381;28;123941;-68
2022/06/12 01:47:12;;;;;;;6.60;3.00;;;;;;;16.91;52.46;102208.81;4897259;28;123865;-68
2022/06/12 01:49:58;;;;;;;5.47;2.70;;;;;;;16.86;52.33;102206.38;4909896;28;115202;-68
2022/06/12 01:52:52;;;;;;;5.68;2.65;;;;;;;16.81;52.24;102203.03;4907656;28;114216;-68
2022/06/12 01:55:31;;;;;;;5.70;2.63;;;;;;;16.77;52.41;102190.75;4867441;28;124405;-69
2022/06/12 01:58:01;;;;;;;7.32;3.03;;;;;;;16.76;52.56;102194.34;4898921;28;124513;-68
2022/06/12 02:00:29;;;;;;;7.53;3.15;;;;;;;16.71;52.52;102196.41;4905002;28;114168;-69
2022/06/12 02:03:29;;;;;;;7.40;3.08;;;;;;;16.66;52.63;102193.09;4924783;28;112882;-69
2022/06/12 02:06:02;;;;;;;7.57;3.08;;;;;;;16.65;52.91;102196.69;4890695;28;122750;-69
2022/06/12 02:08:41;;;;;;;8.10;3.40;;;;;;;16.62;52.85;102191.50;4894225;28;123659;-69
2022/06/12 02:14:13;;;;;;;5.65;3.10;;;;;;;16.58;53.01;102187.25;4896508;28;114451;-69
2022/06/12 02:16:45;;;;;;;7.10;3.22;;;;;;;16.55;53.03;102191.78;4895537;28;124312;-70
2022/06/12 02:19:19;;;;;;;6.53;2.83;;;;;;;16.53;52.94;102188.31;4901720;28;123878;-68
2022/06/12 02:21:53;;;;;;;6.80;2.95;;;;;;;16.53;52.98;102195.47;4894633;28;114700;-68
2022/06/12 02:24:23;;;;;;;9.32;2.95;;;;;;;16.51;53.01;102195.56;4903685;28;114684;-69
2022/06/12 02:27:00;;;;;;;7.05;3.17;;;;;;;16.50;53.10;102204.53;4894185;28;123957;-69
2022/06/12 02:29:45;;;;;;;7.80;3.40;;;;;;;16.47;53.03;102188.63;4897513;28;123895;-68
2022/06/12 02:32:32;;;;;;;6.30;3.10;;;;;;;16.45;53.02;102195.00;4899720;28;115822;-68
2022/06/12 02:35:05;;;;;;;8.65;3.10;;;;;;;16.42;53.12;102193.31;4902050;28;114840;-68
2022/06/12 02:37:45;;;;;;;6.47;3.03;;;;;;;16.38;53.39;102183.72;4899893;28;124302;-68
2022/06/12 02:40:22;;;;;;;7.50;2.83;;;;;;;16.35;53.27;102189.22;4907142;28;123640;-67
2022/06/12 02:42:52;;;;;;;7.68;2.80;;;;;;;16.33;53.33;102196.44;4897927;28;114344;-68
2022/06/12 02:45:55;;;;;;;7.43;3.30;;;;;;;16.33;53.27;102196.44;4900844;28;113842;-68
2022/06/12 02:48:23;;;;;;;6.20;2.70;;;;;;;16.33;53.29;102185.72;4883194;28;123880;-68
2022/06/12 02:50:53;;;;;;;6.85;2.97;;;;;;;16.31;53.34;102192.97;4899737;28;124249;-68
2022/06/12 02:53:32;;;;;;;6.40;2.85;;;;;;;16.29;53.46;102189.50;4902187;28;114243;-68
2022/06/12 02:56:12;;;;;;;10.85;3.40;;;;;;;16.26;53.58;102174.47;4900920;28;114755;-67
2022/06/12 02:59:20;;;;;;;7.13;3.00;;;;;;;16.24;53.62;102180.84;4901771;28;124553;-67
2022/06/12 03:02:02;;;;;;;6.55;3.15;;;;;;;16.21;53.57;102181.84;4874276;28;124157;-67
2022/06/12 03:04:50;;;;;;;5.60;2.97;;;;;;;16.18;53.63;102181.13;4907124;28;114862;-67
2022/06/12 03:07:17;;;;;;;11.38;3.13;;;;;;;16.19;53.60;102177.53;4904619;28;113043;-67
2022/06/12 03:09:45;;;;;;;8.20;2.90;;;;;;;16.18;53.72;102170.44;4897959;28;125730;-67
2022/06/12 03:12:12;;;;;;;7.50;2.83;;;;;;;16.18;53.84;102170.44;4910476;28;122823;-67
2022/06/12 03:14:40;;;;;;;8.32;3.33;;;;;;;16.17;53.89;102169.56;4904160;28;114599;-67
2022/06/12 03:17:08;;;;;;;10.18;3.53;;;;;;;16.17;53.86;102174.06;4909859;28;115268;-67
2022/06/12 03:19:45;;;;;;;4.53;2.58;;;;;;;16.15;54.02;102175.00;4897148;28;123813;-68
2022/06/12 03:22:39;;;;;;;6.22;2.90;;;;;;;16.12;53.92;102172.47;4906492;28;122968;-68
2022/06/12 03:25:17;;;;;;;6.63;3.17;;;;;;;16.11;53.90;102181.41;4902591;28;115551;-69
2022/06/12 03:28:07;;;;;;;7.90;3.30;;;;;;;16.10;54.06;102185.03;4904960;28;114969;-69
2022/06/12 03:30:44;;;;;;;7.85;2.90;;;;;;;16.09;54.14;102191.31;4899001;28;124736;-68
2022/06/12 03:33:27;;;;;;;10.00;2.95;;;;;;;16.08;54.33;102197.59;4898188;28;124561;-69
2022/06/12 03:36:04;;;;;;;8.38;3.05;;;;;;;16.08;54.30;102192.25;4897569;28;114318;-69
2022/06/12 03:38:43;;;;;;;8.45;2.90;;;;;;;16.08;54.46;102186.91;4894530;28;114745;-68
2022/06/12 03:41:13;;;;;;;7.82;3.05;;;;;;;16.10;54.48;102187.69;4900378;28;124034;-68
2022/06/12 03:44:03;;;;;;;11.50;2.88;;;;;;;16.11;54.37;102186.75;4894655;28;123969;-68
2022/06/12 03:46:45;;;;;;;7.35;3.08;;;;;;;16.11;54.45;102192.13;4901047;28;114347;-68
2022/06/12 03:49:25;;;;;;;7.80;3.00;;;;;;;16.15;54.50;102192.84;4896738;28;113954;-68
2022/06/12 03:52:05;;;;;;;9.25;3.03;;;;;;;16.15;54.49;102188.34;4898975;28;123743;-69
2022/06/12 03:54:40;;;;;;;6.85;3.08;;;;;;;16.18;54.61;102186.47;4899032;28;123974;-69
2022/06/12 04:00:17;;;;;;;12.38;3.38;;;;;;;16.21;54.56;102191.69;4902852;28;114330;-68
2022/06/12 04:02:58;;;;;;;8.07;3.25;;;;;;;16.23;54.59;102184.44;4896718;28;124481;-68
2022/06/12 04:05:52;;;;;;;10.27;3.53;;;;;;;16.24;54.56;102191.56;4906669;28;124214;-68
2022/06/12 04:08:35;;;;;;;7.65;3.58;;;;;;;16.27;54.69;102191.38;4901637;28;114081;-68
2022/06/12 04:11:03;;;;;;;9.98;3.70;;;;;;;16.30;54.75;102191.25;4907588;28;113745;-67
2022/06/12 04:13:31;;;;;;;9.30;3.40;;;;;;;16.33;54.77;102196.44;4900014;28;124078;-68
2022/06/12 04:16:01;;;;;;;7.53;3.42;;;;;;;16.36;54.91;102196.28;4905570;28;122966;-67
2022/06/12 04:18:30;;;;;;;10.27;3.72;;;;;;;16.40;54.82;102192.53;4903178;28;115843;-68
2022/06/12 04:21:02;;;;;;;8.43;3.50;;;;;;;16.43;54.85;102187.03;4904585;28;115558;-68
2022/06/12 04:23:44;;;;;;;9.68;3.50;;;;;;;16.46;54.98;102192.25;4903559;28;124427;-67
2022/06/12 04:26:20;;;;;;;8.35;3.75;;;;;;;16.48;54.91;102187.69;4900308;28;124170;-68
2022/06/12 04:29:16;;;;;;;8.77;3.60;;;;;;;16.52;55.07;102202.66;4907789;28;114381;-68
2022/06/12 04:31:47;;;;;;;11.02;3.67;;;;;;;16.58;54.74;102195.28;4897807;28;113781;-67
2022/06/12 04:34:23;;;;;;;9.90;3.53;;;;;;;16.61;54.93;102200.47;4907154;28;124574;-67
2022/06/12 04:37:12;;;;;;;9.70;3.63;;;;;;;16.67;54.89;102195.69;4905743;28;123974;-66
2022/06/12 04:39:41;;;;;;;9.85;3.65;;;;;;;16.73;54.80;102194.53;4903896;28;114436;-67
2022/06/12 04:42:08;;;;;;;7.85;3.28;;;;;;;16.77;54.81;102197.91;4901684;28;114063;-68
2022/06/12 04:44:36;;;;;;;8.45;3.13;;;;;;;16.83;54.96;102194.97;4899175;28;124150;-65
2022/06/12 04:47:04;;;;;;;9.15;3.70;;;;;;;16.91;55.31;102193.66;4908682;28;124270;-65
2022/06/12 04:49:34;;;;;;;8.75;3.40;;;;;;;17.03;55.39;102202.00;4903203;28;114329;-69
2022/06/12 04:52:04;;;;;;;10.30;3.50;;;;;;;17.14;55.34;102199.66;4899425;28;113713;-67
2022/06/12 04:54:33;;;;;;;6.85;3.10;;;;;;;17.26;55.27;102199.00;4902099;28;124664;-65
2022/06/12 04:57:01;;;;;;;8.57;3.40;;;;;;;17.42;55.14;102203.56;4902593;28;123614;-66
2022/06/12 04:59:29;;;;;;;8.43;3.33;;;;;;;17.55;54.80;102196.59;4907844;28;115001;-65
2022/06/12 05:01:58;;;;;;;8.10;3.25;;;;;;;17.68;54.77;102200.38;4899403;28;114101;-66
2022/06/12 05:04:26;;;;;;;9.82;3.30;;;;;;;17.79;54.47;102196.25;4906766;28;124252;-66
2022/06/12 05:06:54;;;;;;;5.22;2.70;;;;;;;17.86;54.31;102192.34;4912182;28;122979;-66
2022/06/12 05:09:25;;;;;;;10.85;3.30;;;;;;;17.93;54.18;102196.38;4905021;28;115011;-65
2022/06/12 05:11:54;;;;;;;7.35;2.72;;;;;;;17.98;54.09;102197.00;4906882;28;115176;-66
2022/06/12 05:14:21;;;;;;;8.52;3.08;;;;;;;18.01;53.86;102191.50;4903888;28;123869;-67
2022/06/12 05:16:55;;;;;;;8.25;3.38;;;;;;;18.04;53.76;102185.94;4897074;28;123841;-67
2022/06/12 05:19:27;;;;;;;7.80;3.53;;;;;;;18.06;53.69;102189.44;4898562;28;114127;-67
2022/06/12 05:21:55;;;;;;;9.95;3.40;;;;;;;18.09;53.67;102189.25;4897759;28;114133;-66
2022/06/12 05:24:22;;;;;;;10.15;3.50;;;;;;;18.13;53.69;102192.63;4901018;28;124926;-66
2022/06/12 05:26:51;;;;;;;7.95;3.67;;;;;;;18.17;53.55;102196.00;4903122;28;123781;-66
2022/06/12 05:29:23;;;;;;;8.93;3.80;;;;;;;18.20;53.48;102190.47;4894805;28;114258;-66
2022/06/12 05:31:51;;;;;;;8.25;3.50;;;;;;;18.24;53.62;102192.03;4898820;28;114281;-66
2022/06/12 05:34:19;;;;;;;9.40;3.65;;;;;;;18.29;53.59;102195.34;4902297;28;124021;-67
2022/06/12 05:36:47;;;;;;;10.50;4.05;;;;;;;18.35;53.56;102188.75;4899574;28;123940;-67
2022/06/12 05:39:14;;;;;;;10.07;3.85;;;;;;;18.38;53.32;102200.16;4903186;28;114280;-67
2022/06/12 05:41:42;;;;;;;7.78;3.33;;;;;;;18.44;53.65;102194.47;4902845;28;113745;-67
2022/06/12 05:44:09;;;;;;;9.10;3.47;;;;;;;18.51;53.62;102194.97;4898356;28;124382;-65
2022/06/12 05:46:36;;;;;;;10.30;3.70;;;;;;;18.58;53.42;102195.50;4901597;28;124425;-64
2022/06/12 05:49:04;;;;;;;10.50;3.80;;;;;;;18.62;53.44;102197.03;4904162;28;114199;-65
2022/06/12 05:51:31;;;;;;;8.93;3.60;;;;;;;18.68;53.29;102194.00;4910796;28;114674;-66
2022/06/12 05:53:58;;;;;;;8.50;3.97;;;;;;;18.75;53.55;102192.69;4904256;28;124266;-65
2022/06/12 05:56:29;;;;;;;14.70;3.85;;;;;;;18.82;53.69;102193.25;4901400;28;124194;-66
2022/06/12 05:58:59;;;;;;;14.13;4.30;;;;;;;18.90;53.64;102206.22;4908199;28;115919;-66
2022/06/12 06:01:27;;;;;;;9.32;4.38;;;;;;;18.97;53.59;102207.59;4895042;28;115347;-65
2022/06/12 06:03:54;;;;;;;12.98;4.35;;;;;;;19.04;53.57;102214.31;4901891;28;124184;-66
2022/06/12 06:06:31;;;;;;;10.20;4.00;;;;;;;19.12;53.56;102217.44;4906891;28;123745;-65
2022/06/12 06:09:03;;;;;;;10.18;4.45;;;;;;;19.22;53.56;102218.59;4904556;28;115186;-65
2022/06/12 06:11:31;;;;;;;9.82;4.13;;;;;;;19.33;53.67;102219.78;4902249;28;114386;-65
2022/06/12 06:13:58;;;;;;;13.50;4.65;;;;;;;19.42;53.63;102212.03;4905029;28;124436;-65
2022/06/12 06:16:26;;;;;;;13.05;4.57;;;;;;;19.53;53.60;102219.41;4893257;28;123886;-65
2022/06/12 06:18:56;;;;;;;10.20;4.25;;;;;;;19.64;53.54;102219.63;4898309;28;114114;-65
2022/06/12 06:21:23;;;;;;;8.80;3.95;;;;;;;19.77;53.57;102218.91;4900685;28;114185;-65
2022/06/12 06:23:54;;;;;;;7.25;4.05;;;;;;;19.88;53.54;102218.25;4894540;28;123933;-66
2022/06/12 06:26:22;;;;;;;11.70;4.45;;;;;;;20.00;53.64;102212.97;4903317;28;124656;-65
2022/06/12 06:28:51;;;;;;;13.05;4.93;;;;;;;20.15;53.68;102203.03;4905553;28;113670;-66
2022/06/12 06:31:19;;;;;;;12.95;4.40;;;;;;;20.30;53.56;102217.34;4902939;28;114735;-66
2022/06/12 06:33:47;;;;;;;16.33;4.60;;;;;;;20.47;53.58;102212.72;4903561;28;123897;-65
2022/06/12 06:36:15;;;;;;;14.43;4.55;;;;;;;20.63;53.26;102218.84;4899438;28;124213;-65
2022/06/12 06:38:43;;;;;;;14.38;4.38;;;;;;;20.76;53.23;102214.38;4908588;28;114352;-65
2022/06/12 06:41:10;;;;;;;12.25;4.72;;;;;;;20.91;52.92;102219.72;4912071;28;113260;-66
2022/06/12 06:46:24;;;;;;;11.20;4.10;;;;;;;21.18;52.66;102225.06;4912876;28;125577;-66
2022/06/12 06:48:51;;;;;;;16.17;4.60;;;;;;;21.29;52.76;102227.03;4908827;28;115241;-67
2022/06/12 06:51:19;;;;;;;11.23;4.07;;;;;;;21.41;52.61;102226.19;4911833;28;114967;-66
2022/06/12 06:53:46;;;;;;;13.30;4.38;;;;;;;21.54;52.31;102229.78;4910458;28;124321;-66
2022/06/12 06:56:14;;;;;;;13.45;4.43;;;;;;;21.67;52.06;102228.94;4912573;28;124597;-65
2022/06/12 06:58:41;;;;;;;20.02;4.30;;;;;;;21.80;52.18;102235.19;4912439;28;114452;-67
2022/06/12 07:01:09;;;;;;;12.75;4.30;;;;;;;21.95;51.90;102230.53;4913642;28;113940;-67
2022/06/12 07:03:43;;;;;;;14.00;4.43;;;;;;;22.06;51.62;102230.63;4911528;28;124155;-67
2022/06/12 07:06:14;;;;;;;14.38;4.97;;;;;;;22.17;51.44;102230.72;4907994;28;124647;-67
2022/06/12 07:08:41;;;;;;;10.95;4.10;;;;;;;22.28;51.23;102230.00;4908393;28;114099;-69
2022/06/12 07:11:08;;;;;;;12.60;4.53;;;;;;;22.36;50.81;102229.44;4905985;28;114015;-67
2022/06/12 07:13:36;;;;;;;14.23;4.32;;;;;;;22.48;51.07;102233.06;4902468;28;124961;-66
2022/06/12 07:16:04;;;;;;;11.00;3.92;;;;;;;22.61;50.73;102233.88;4911411;28;123725;-66
2022/06/12 07:18:31;;;;;;;15.20;4.28;;;;;;;22.72;50.54;102228.53;4897574;28;114667;-66
2022/06/12 07:21:02;;;;;;;16.80;4.38;;;;;;;22.86;50.13;102223.94;4905641;28;113815;-67
2022/06/12 07:23:31;;;;;;;13.80;3.92;;;;;;;22.98;50.21;102225.72;4903026;28;123964;-67
2022/06/12 07:26:04;;;;;;;16.70;3.97;;;;;;;23.11;50.11;102225.66;4907603;28;124066;-68
2022/06/12 07:28:34;;;;;;;10.70;3.88;;;;;;;23.18;49.50;102236.88;4897302;28;114552;-67
2022/06/12 07:31:04;;;;;;;14.57;4.40;;;;;;;23.27;49.38;102230.78;4905249;28;114486;-67
2022/06/12 07:33:31;;;;;;;15.35;4.28;;;;;;;23.38;49.10;102228.09;4903146;28;123665;-67
2022/06/12 07:35:59;;;;;;;13.20;3.50;;;;;;;23.48;48.85;102222.84;4912232;28;123499;-67
2022/06/12 07:38:28;;;;;;;13.30;3.85;;;;;;;23.59;48.66;102236.38;4902219;28;115807;-67
2022/06/12 07:40:58;;;;;;;13.30;4.30;;;;;;;23.71;48.45;102234.53;4908151;28;114393;-67
2022/06/12 07:43:28;;;;;;;13.35;3.80;;;;;;;23.81;48.44;102229.28;4910175;28;124262;-67
2022/06/12 07:45:56;;;;;;;11.45;3.90;;;;;;;23.93;48.27;102232.88;4909738;28;123703;-67
2022/06/12 07:48:24;;;;;;;10.27;3.65;;;;;;;24.04;48.39;102227.47;4911096;28;113208;-67
2022/06/12 07:50:53;;;;;;;13.93;3.97;;;;;;;24.21;48.24;102220.69;4912511;28;113679;-67
2022/06/12 07:53:22;;;;;;;12.75;3.50;;;;;;;24.38;47.70;102227.44;4910583;28;123934;-67
2022/06/12 07:55:51;;;;;;;10.18;3.20;;;;;;;24.50;47.62;102231.84;4910088;28;124019;-67
2022/06/12 07:58:20;;;;;;;9.65;3.50;;;;;;;24.60;47.08;102227.44;4910205;28;114115;-67
2022/06/12 08:00:56;;;;;;;9.55;3.47;;;;;;;24.68;47.05;102230.34;4912331;28;114062;-67
2022/06/12 08:03:25;;;;;;;10.30;3.55;;;;;;;24.77;46.45;102234.16;4908304;28;123988;-67
2022/06/12 08:05:52;;;;;;;10.70;3.72;;;;;;;24.83;46.25;102227.34;4910758;28;122453;-67
2022/06/12 08:08:19;;;;;;;11.85;3.88;;;;;;;24.87;45.85;102228.81;4926449;28;113214;-66
2022/06/12 08:10:47;;;;;;;10.25;3.50;;;;;;;24.85;46.03;102230.81;4910269;28;114364;-66
2022/06/12 08:13:14;;;;;;;12.30;3.38;;;;;;;24.86;46.13;102229.78;4907135;28;123158;-66
2022/06/12 08:15:45;;;;;;;8.27;3.22;;;;;;;24.90;45.79;102228.53;4909942;28;124178;-66
2022/06/12 08:18:14;;;;;;;9.85;3.15;;;;;;;24.95;45.48;102226.31;4909184;28;114113;-66
2022/06/12 08:20:46;;;;;;;11.10;3.13;;;;;;;25.02;45.32;102227.53;4906827;28;114250;-67
2022/06/12 08:23:26;;;;;;;9.85;2.92;;;;;;;25.06;44.89;102228.97;4900296;28;124754;-67
2022/06/12 08:26:02;;;;;;;9.13;3.10;;;;;;;25.04;44.28;102225.53;4913569;28;122830;-67
2022/06/12 08:28:34;;;;;;;13.73;3.22;;;;;;;25.00;44.50;102224.06;4896861;28;115088;-67
2022/06/12 08:31:03;;;;;;;13.10;3.50;;;;;;;24.99;44.70;102225.06;4896890;28;114980;-67
2022/06/12 08:33:32;;;;;;;11.43;3.38;;;;;;;24.99;44.64;102230.47;4910467;28;124078;-67
2022/06/12 08:35:59;;;;;;;9.57;2.88;;;;;;;24.97;44.45;102229.75;4923642;28;124661;-67
2022/06/12 08:38:27;;;;;;;11.68;3.67;;;;;;;24.95;43.98;102231.72;4901164;28;114206;-67
2022/06/12 08:41:04;;;;;;;9.45;3.30;;;;;;;24.92;44.53;102226.59;4906392;28;114041;-67
2022/06/12 08:43:50;;;;;;;12.93;3.42;;;;;;;24.93;44.06;102233.72;4903024;28;124431;-67
2022/06/12 08:46:49;;;;;;;10.13;3.72;;;;;;;24.93;44.12;102233.72;4911165;28;124046;-67
2022/06/12 08:49:30;;;;;;;10.80;3.00;;;;;;;24.93;44.75;102235.56;4910753;28;114459;-67
2022/06/12 08:52:07;;;;;;;8.45;2.70;;;;;;;24.98;44.39;102231.47;4902957;28;114111;-66
2022/06/12 08:54:41;;;;;;;12.20;3.47;;;;;;;25.04;44.21;102222.81;4912085;28;124050;-65
2022/06/12 08:57:14;;;;;;;9.32;2.72;;;;;;;25.12;43.95;102215.91;4914999;28;123990;-65
2022/06/12 08:59:51;;;;;;;8.98;2.85;;;;;;;25.16;44.00;102222.78;4910565;28;114322;-66
2022/06/12 09:02:29;;;;;;;9.43;2.80;;;;;;;25.20;43.64;102208.84;4904672;28;113942;-67
2022/06/12 09:04:58;;;;;;;10.50;2.67;;;;;;;25.22;43.53;102211.38;4911777;28;124241;-67
2022/06/12 09:07:35;;;;;;;8.35;3.22;;;;;;;25.21;43.39;102212.41;4913365;28;122639;-67
2022/06/12 09:10:08;;;;;;;8.65;3.05;;;;;;;25.20;43.37;102207.94;4929186;28;114076;-67
2022/06/12 09:12:51;;;;;;;7.93;2.80;;;;;;;25.14;42.92;102208.47;4912861;28;113906;-67
2022/06/12 09:15:34;;;;;;;8.02;3.20;;;;;;;25.09;43.31;102210.72;4898685;28;124383;-67
2022/06/12 09:18:10;;;;;;;10.63;2.67;;;;;;;25.12;43.35;102210.47;4901082;28;124179;-67
2022/06/12 09:20:56;;;;;;;9.40;3.28;;;;;;;25.16;43.20;102211.94;4911591;28;115967;-67
2022/06/12 09:23:47;;;;;;;7.50;3.28;;;;;;;25.22;43.22;102205.97;4901008;28;114769;-67
2022/06/12 09:26:25;;;;;;;9.45;3.00;;;;;;;25.27;43.32;102202.91;4900011;28;124066;-68
2022/06/12 09:29:13;;;;;;;10.90;3.30;;;;;;;25.35;43.87;102198.53;4913354;28;124711;-67
2022/06/12 09:31:53;;;;;;;7.78;2.90;;;;;;;25.47;43.49;102198.44;4913394;28;114568;-67
2022/06/12 09:34:42;;;;;;;6.35;2.30;;;;;;;25.59;43.28;102195.53;4907958;28;114188;-67
2022/06/12 09:40:13;;;;;;;8.68;2.50;;;;;;;25.75;42.68;102197.75;4905737;28;123931;-67
2022/06/12 09:43:03;;;;;;;10.40;2.75;;;;;;;25.83;42.68;102195.22;4898454;28;114361;-67
2022/06/12 09:46:18;;;;;;;6.20;1.80;;;;;;;25.92;42.06;102187.28;4900094;28;113836;-66
2022/06/12 09:49:14;;;;;;;7.83;2.27;;;;;;;25.97;41.23;102195.88;4879318;28;124845;-66
2022/06/12 09:51:47;;;;;;;6.43;2.10;;;;;;;25.99;41.06;102188.44;4914816;28;124484;-66
2022/06/12 09:54:25;;;;;;;7.30;2.28;;;;;;;26.00;41.14;102184.75;4909871;28;114283;-66
2022/06/12 09:57:05;;;;;;;7.55;2.20;;;;;;;26.01;40.56;102191.88;4913329;28;114337;-67
2022/06/12 09:59:56;;;;;;;6.93;2.20;;;;;;;26.01;40.76;102191.88;4912006;28;124103;-66
2022/06/12 10:02:45;;;;;;;7.25;1.92;;;;;;;26.09;41.10;102197.50;4911420;28;123850;-66
2022/06/12 10:05:22;;;;;;;6.35;1.77;;;;;;;26.17;40.53;102186.78;4915747;28;113323;-66
2022/06/12 10:08:03;;;;;;;7.43;2.30;;;;;;;26.26;40.69;102195.97;4900096;28;113854;-67
2022/06/12 10:10:43;;;;;;;8.40;2.42;;;;;;;26.32;40.35;102194.56;4903019;28;124165;-67
2022/06/12 10:13:16;;;;;;;9.43;2.33;;;;;;;26.35;40.02;102194.25;4911581;28;123670;-66
2022/06/12 10:16:02;;;;;;;5.65;1.92;;;;;;;26.34;40.04;102193.41;4893113;28;115578;-67
2022/06/12 10:18:38;;;;;;;6.43;2.40;;;;;;;26.38;40.23;102189.41;4904682;28;115424;-66
2022/06/12 10:21:10;;;;;;;7.78;2.80;;;;;;;26.45;40.38;102181.56;4898942;28;125011;-66
2022/06/12 10:23:38;;;;;;;10.05;2.78;;;;;;;26.53;40.50;102187.16;4896604;28;122841;-65
2022/06/12 10:26:20;;;;;;;7.15;2.33;;;;;;;26.60;39.76;102182.91;4900290;28;114340;-66
2022/06/12 10:29:04;;;;;;;6.40;1.98;;;;;;;26.60;39.56;102182.91;4911039;28;114757;-67
2022/06/12 10:31:34;;;;;;;6.43;2.45;;;;;;;26.60;39.69;102174.75;4914154;28;125473;-66
2022/06/12 10:34:18;;;;;;;6.50;2.05;;;;;;;26.59;39.71;102181.19;4909268;28;123722;-66
2022/06/12 10:36:45;;;;;;;7.78;2.17;;;;;;;26.59;39.32;102181.19;4893763;28;114838;-66
2022/06/12 10:39:21;;;;;;;6.15;1.92;;;;;;;26.59;39.20;102180.28;4905574;28;113137;-67
2022/06/12 10:41:59;;;;;;;10.73;2.30;;;;;;;26.56;39.18;102170.56;4918238;28;123310;-68
2022/06/12 10:44:26;;;;;;;4.28;1.80;;;;;;;26.57;39.19;102177.72;4897025;28;123729;-67
2022/06/12 10:46:53;;;;;;;6.22;1.73;;;;;;;26.60;39.27;102171.19;4911563;28;114698;-66
2022/06/12 10:49:23;;;;;;;4.60;1.75;;;;;;;26.63;38.62;102167.31;4911981;28;114425;-67
2022/06/12 10:52:02;;;;;;;5.07;2.13;;;;;;;26.64;38.60;102171.75;4911070;28;123867;-66
2022/06/12 10:54:34;;;;;;;8.68;2.00;;;;;;;26.64;38.37;102163.59;4897476;28;123954;-67
2022/06/12 10:57:29;;;;;;;8.55;2.10;;;;;;;26.61;38.04;102173.75;4912367;28;114640;-66
2022/06/12 11:00:15;;;;;;;8.68;2.08;;;;;;;26.57;38.52;102164.13;4897806;28;114258;-66
2022/06/12 11:03:02;;;;;;;7.65;2.03;;;;;;;26.58;38.63;102165.84;4925923;28;124195;-66
2022/06/12 11:05:54;;;;;;;8.25;2.17;;;;;;;26.66;38.75;102169.75;4899919;28;124507;-66
2022/06/12 11:08:39;;;;;;;7.63;2.20;;;;;;;26.70;38.83;102165.75;4911397;28;115156;-66
2022/06/12 11:11:28;;;;;;;7.57;2.40;;;;;;;26.69;38.72;102169.44;4906808;28;114997;-66
2022/06/12 11:14:30;;;;;;;7.40;1.90;;;;;;;26.73;39.11;102160.00;4907103;28;123888;-67
2022/06/12 11:17:14;;;;;;;7.95;2.42;;;;;;;26.78;38.69;102168.59;4894095;28;123716;-67
2022/06/12 11:20:06;;;;;;;7.50;2.35;;;;;;;26.80;39.00;102163.88;4911598;28;114871;-67
2022/06/12 11:22:45;;;;;;;7.80;2.40;;;;;;;26.80;38.77;102163.88;4909835;28;114395;-67
2022/06/12 11:25:50;;;;;;;5.75;2.25;;;;;;;26.84;39.08;102159.88;4900227;28;124765;-67
2022/06/12 11:28:28;;;;;;;8.52;2.65;;;;;;;26.89;38.74;102165.72;4903140;28;124123;-67
2022/06/12 11:31:24;;;;;;;7.93;2.65;;;;;;;26.92;38.91;102165.47;4911877;28;114352;-67
2022/06/12 11:34:07;;;;;;;8.68;2.47;;;;;;;26.94;38.34;102158.00;4909941;28;114349;-67
2022/06/12 11:37:01;;;;;;;15.00;2.38;;;;;;;26.93;38.94;102148.13;4909501;28;124769;-67
2022/06/12 11:39:56;;;;;;;8.85;2.40;;;;;;;26.92;38.49;102160.03;4911182;28;124851;-66
2022/06/12 11:42:56;;;;;;;6.57;2.00;;;;;;;26.90;38.06;102156.59;4913075;28;114307;-67
2022/06/12 11:46:17;;;;;;;9.77;2.38;;;;;;;26.82;38.07;102151.00;4911308;28;114523;-67
2022/06/12 11:48:59;;;;;;;6.03;1.92;;;;;;;26.74;37.62;102143.56;4899526;28;124917;-66
2022/06/12 11:51:43;;;;;;;7.78;1.90;;;;;;;26.65;37.97;102129.97;4909035;28;124233;-66
2022/06/12 11:54:44;;;;;;;7.60;1.80;;;;;;;26.58;37.76;102135.97;4898497;28;114066;-67
2022/06/12 11:57:25;;;;;;;6.32;2.17;;;;;;;26.55;37.92;102136.25;4903448;28;113101;-67
2022/06/12 12:00:09;;;;;;;5.60;1.90;;;;;;;26.55;37.93;102130.81;4910996;28;123995;-67
2022/06/12 12:02:53;;;;;;;5.88;1.70;;;;;;;26.55;37.43;102129.94;4896264;28;123043;-67
2022/06/12 12:05:45;;;;;;;6.82;1.88;;;;;;;26.54;37.59;102129.09;4898048;28;115619;-66
2022/06/12 12:08:50;;;;;;;6.75;1.90;;;;;;;26.54;37.85;102123.66;4909015;28;115266;-66